Accueil
METAR-TAF:

METAR-TAF

Aéroports :

Aéroport régional Les Éplatures

La Chaux-de-Fonds, Suisse

latitude: 47-05-03N, longitude: 006-47-37E, altitude: 1027 m

Observation

Le bulletin a été fait il y a 12 minutes, à 00:20 UTC
Vent 1 kt de direction variable
Température 14°C
Humidité 88%
Pression 1022 hPa
Visibilité 10 km ou plus

METAR: LSGC 210020Z AUTO VRB01KT 9999 NCD 14/12 Q1022

Heure: 02:32 (00:32 UTC)

Prévision

Le bulletin a été fait il y a 10 heures et 7 minutes, à 14:25 UTC
Prévision valable du 20 à 15 UTC au 20 à 24 UTC
Vent 3 kt de direction variable
Visibilité 10 km ou plus
Quelques nuages à une hauteur de 3500 ft
Nuages épars à une hauteur de 4000 ft

TAF: LSGC 201425Z 2015/2024 VRB03KT 9999 FEW035 SCT040

Observations et prévisions météorologiques de plus de 4000 aéroports (messages METAR et TAF).

Les stations disponibles sont représentées par des disques jaunes et rouges sur la carte.

Passer la souris dessus pour voir le nom de la station.

Cliquer dessus pour voir les observations et prévisions météorologiques.

Pour changer de carte: cliquez sur les boutons verts avec une croix noire pour zoomer, sur le bouton vert avec un tiret pour effectuer un zoom arrière, ou sur les flèches vertes pour les cartes adjacentes.


METAR-TAF: